sensor_id;sensor_type;location;lat;lon;timestamp;pressure;altitude;pressure_sealevel;temperature;humidity
57192;BME280;43052;52.588;13.396;2023-03-19T00:00:38;100932.09;;;8.74;67.43
57192;BME280;43052;52.588;13.396;2023-03-19T00:03:03;100917.31;;;8.75;67.51
57192;BME280;43052;52.588;13.396;2023-03-19T00:05:28;100927.78;;;8.83;67.21
57192;BME280;43052;52.588;13.396;2023-03-19T00:07:53;100932.16;;;8.88;67.13
57192;BME280;43052;52.588;13.396;2023-03-19T00:10:19;100926.09;;;8.89;66.88
57192;BME280;43052;52.588;13.396;2023-03-19T00:12:44;100932.16;;;8.91;66.93
57192;BME280;43052;52.588;13.396;2023-03-19T00:15:10;100932.19;;;8.93;66.86
57192;BME280;43052;52.588;13.396;2023-03-19T00:17:38;100930.44;;;8.93;66.57
57192;BME280;43052;52.588;13.396;2023-03-19T00:20:03;100930.41;;;8.87;66.29
57192;BME280;43052;52.588;13.396;2023-03-19T00:22:29;100926.06;;;8.85;66.61
57192;BME280;43052;52.588;13.396;2023-03-19T00:24:54;100924.28;;;8.81;66.45
57192;BME280;43052;52.588;13.396;2023-03-19T00:27:20;100929.50;;;8.77;66.30
57192;BME280;43052;52.588;13.396;2023-03-19T00:29:45;100927.78;;;8.76;66.52
57192;BME280;43052;52.588;13.396;2023-03-19T00:32:10;100925.13;;;8.75;66.45
57192;BME280;43052;52.588;13.396;2023-03-19T00:34:36;100922.50;;;8.69;66.47
57192;BME280;43052;52.588;13.396;2023-03-19T00:37:01;100934.63;;;8.62;66.72
57192;BME280;43052;52.588;13.396;2023-03-19T00:39:26;100932.84;;;8.55;66.80
57192;BME280;43052;52.588;13.396;2023-03-19T00:41:52;100924.94;;;8.42;67.01
57192;BME280;43052;52.588;13.396;2023-03-19T00:44:17;100931.84;;;8.36;67.14
57192;BME280;43052;52.588;13.396;2023-03-19T00:46:43;100936.16;;;8.29;67.32
57192;BME280;43052;52.588;13.396;2023-03-19T00:49:08;100930.91;;;8.23;67.43
57192;BME280;43052;52.588;13.396;2023-03-19T00:51:34;100931.69;;;8.15;67.65
57192;BME280;43052;52.588;13.396;2023-03-19T00:53:59;100936.91;;;8.14;67.75
57192;BME280;43052;52.588;13.396;2023-03-19T00:56:24;100935.16;;;8.13;67.58
57192;BME280;43052;52.588;13.396;2023-03-19T00:58:50;100935.13;;;8.07;67.56
57192;BME280;43052;52.588;13.396;2023-03-19T01:01:17;100928.97;;;7.98;67.90
57192;BME280;43052;52.588;13.396;2023-03-19T01:03:44;100931.56;;;7.95;67.89
57192;BME280;43052;52.588;13.396;2023-03-19T01:06:09;100944.56;;;7.95;68.14
57192;BME280;43052;52.588;13.396;2023-03-19T01:08:35;100945.47;;;7.96;68.15
57192;BME280;43052;52.588;13.396;2023-03-19T01:11:08;100942.84;;;7.96;67.81
57192;BME280;43052;52.588;13.396;2023-03-19T01:13:34;100945.44;;;7.91;68.02
57192;BME280;43052;52.588;13.396;2023-03-19T01:15:59;100942.78;;;7.88;67.99
57192;BME280;43052;52.588;13.396;2023-03-19T01:18:24;100934.97;;;7.88;67.89
57192;BME280;43052;52.588;13.396;2023-03-19T01:20:50;100941.88;;;7.86;67.87
57192;BME280;43052;52.588;13.396;2023-03-19T01:23:15;100945.38;;;7.87;68.01
57192;BME280;43052;52.588;13.396;2023-03-19T01:25:40;100942.78;;;7.90;67.87
57192;BME280;43052;52.588;13.396;2023-03-19T01:28:05;100945.38;;;7.90;67.61
57192;BME280;43052;52.588;13.396;2023-03-19T01:30:31;100950.59;;;7.87;67.84
57192;BME280;43052;52.588;13.396;2023-03-19T01:32:57;100949.69;;;7.84;67.70
57192;BME280;43052;52.588;13.396;2023-03-19T01:35:22;100951.41;;;7.81;67.76
57192;BME280;43052;52.588;13.396;2023-03-19T01:37:47;100949.66;;;7.78;68.06
57192;BME280;43052;52.588;13.396;2023-03-19T01:40:15;100955.69;;;7.73;67.86
57192;BME280;43052;52.588;13.396;2023-03-19T01:43:13;100954.81;;;7.74;68.03
57192;BME280;43052;52.588;13.396;2023-03-19T01:45:40;100965.22;;;7.74;67.92
57192;BME280;43052;52.588;13.396;2023-03-19T01:48:15;100955.66;;;7.71;67.85
57192;BME280;43052;52.588;13.396;2023-03-19T01:50:44;100958.22;;;7.68;67.65
57192;BME280;43052;52.588;13.396;2023-03-19T01:53:11;100955.59;;;7.63;67.52
57192;BME280;43052;52.588;13.396;2023-03-19T01:55:38;100957.28;;;7.63;67.59
57192;BME280;43052;52.588;13.396;2023-03-19T01:58:05;100965.09;;;7.63;67.75
57192;BME280;43052;52.588;13.396;2023-03-19T02:00:34;100957.28;;;7.60;67.94
57192;BME280;43052;52.588;13.396;2023-03-19T02:03:00;100957.25;;;7.57;67.88
57192;BME280;43052;52.588;13.396;2023-03-19T02:05:26;100963.34;;;7.59;67.53
57192;BME280;43052;52.588;13.396;2023-03-19T02:07:55;100948.63;;;7.61;67.45
57192;BME280;43052;52.588;13.396;2023-03-19T02:10:22;100950.34;;;7.60;67.48
57192;BME280;43052;52.588;13.396;2023-03-19T02:12:48;100947.72;;;7.59;67.51
57192;BME280;43052;52.588;13.396;2023-03-19T02:15:13;100938.19;;;7.58;67.63
57192;BME280;43052;52.588;13.396;2023-03-19T02:17:39;100937.31;;;7.60;67.22
57192;BME280;43052;52.588;13.396;2023-03-19T02:20:26;100944.22;;;7.57;67.33
57192;BME280;43052;52.588;13.396;2023-03-19T02:23:06;100946.81;;;7.53;67.31
57192;BME280;43052;52.588;13.396;2023-03-19T02:28:11;100935.53;;;7.53;66.78
57192;BME280;43052;52.588;13.396;2023-03-19T02:30:38;100933.78;;;7.50;66.81
57192;BME280;43052;52.588;13.396;2023-03-19T02:33:04;100938.06;;;7.47;66.53
57192;BME280;43052;52.588;13.396;2023-03-19T02:35:32;100940.69;;;7.47;66.57
57192;BME280;43052;52.588;13.396;2023-03-19T02:38:00;100946.75;;;7.46;66.51
57192;BME280;43052;52.588;13.396;2023-03-19T02:40:33;100940.69;;;7.48;66.36
57192;BME280;43052;52.588;13.396;2023-03-19T02:43:00;100943.28;;;7.48;66.17
57192;BME280;43052;52.588;13.396;2023-03-19T02:45:27;100939.88;;;7.52;65.76
57192;BME280;43052;52.588;13.396;2023-03-19T02:47:53;100945.13;;;7.57;65.91
57192;BME280;43052;52.588;13.396;2023-03-19T02:50:18;100934.72;;;7.60;65.51
57192;BME280;43052;52.588;13.396;2023-03-19T02:52:44;100937.38;;;7.63;65.44
57192;BME280;43052;52.588;13.396;2023-03-19T02:55:09;100940.88;;;7.67;65.18
57192;BME280;43052;52.588;13.396;2023-03-19T02:57:35;100933.06;;;7.67;65.12
57192;BME280;43052;52.588;13.396;2023-03-19T03:00:00;100937.41;;;7.69;65.06
57192;BME280;43052;52.588;13.396;2023-03-19T03:02:25;100937.44;;;7.74;64.93
57192;BME280;43052;52.588;13.396;2023-03-19T03:04:51;100946.19;;;7.79;64.61
57192;BME280;43052;52.588;13.396;2023-03-19T03:07:16;100934.94;;;7.83;64.53
57192;BME280;43052;52.588;13.396;2023-03-19T03:09:42;100925.41;;;7.84;64.15
57192;BME280;43052;52.588;13.396;2023-03-19T03:12:07;100922.78;;;7.82;64.29
57192;BME280;43052;52.588;13.396;2023-03-19T03:14:33;100931.47;;;7.84;64.00
57192;BME280;43052;52.588;13.396;2023-03-19T03:16:59;100929.75;;;7.87;63.76
57192;BME280;43052;52.588;13.396;2023-03-19T03:19:24;100925.44;;;7.89;63.78
57192;BME280;43052;52.588;13.396;2023-03-19T03:21:49;100933.25;;;7.90;63.59
57192;BME280;43052;52.588;13.396;2023-03-19T03:24:15;100927.16;;;7.87;63.30
57192;BME280;43052;52.588;13.396;2023-03-19T03:26:40;100927.16;;;7.90;63.33
57192;BME280;43052;52.588;13.396;2023-03-19T03:29:06;100935.88;;;7.90;63.25
57192;BME280;43052;52.588;13.396;2023-03-19T03:31:32;100939.31;;;7.91;63.33
57192;BME280;43052;52.588;13.396;2023-03-19T03:33:57;100935.91;;;7.96;62.91
57192;BME280;43052;52.588;13.396;2023-03-19T03:36:22;100933.31;;;7.98;62.93
57192;BME280;43052;52.588;13.396;2023-03-19T03:38:48;100948.09;;;8.02;62.59
57192;BME280;43052;52.588;13.396;2023-03-19T03:41:13;100964.66;;;8.09;62.77
57192;BME280;43052;52.588;13.396;2023-03-19T03:43:38;100980.34;;;8.15;62.43
57192;BME280;43052;52.588;13.396;2023-03-19T03:46:05;100974.31;;;8.21;62.45
57192;BME280;43052;52.588;13.396;2023-03-19T03:48:31;100975.19;;;8.24;62.24
57192;BME280;43052;52.588;13.396;2023-03-19T03:50:56;100981.34;;;8.31;62.67
57192;BME280;43052;52.588;13.396;2023-03-19T03:53:21;100983.94;;;8.34;62.52
57192;BME280;43052;52.588;13.396;2023-03-19T03:55:47;100980.47;;;8.34;62.58
57192;BME280;43052;52.588;13.396;2023-03-19T03:58:12;100990.00;;;8.30;62.76
57192;BME280;43052;52.588;13.396;2023-03-19T04:00:38;100976.97;;;8.30;62.97
57192;BME280;43052;52.588;13.396;2023-03-19T04:03:03;100966.56;;;8.31;62.64
57192;BME280;43052;52.588;13.396;2023-03-19T04:05:29;100981.31;;;8.29;62.40
57192;BME280;43052;52.588;13.396;2023-03-19T04:07:54;100981.31;;;8.28;62.64
57192;BME280;43052;52.588;13.396;2023-03-19T04:10:20;100986.53;;;8.31;62.50
57192;BME280;43052;52.588;13.396;2023-03-19T04:12:45;100981.38;;;8.37;62.46
57192;BME280;43052;52.588;13.396;2023-03-19T04:15:11;100992.69;;;8.39;62.54
57192;BME280;43052;52.588;13.396;2023-03-19T04:17:37;100979.63;;;8.36;62.56
57192;BME280;43052;52.588;13.396;2023-03-19T04:20:03;100991.81;;;8.43;62.36
57192;BME280;43052;52.588;13.396;2023-03-19T04:22:29;100998.84;;;8.49;62.38
57192;BME280;43052;52.588;13.396;2023-03-19T04:24:54;100988.47;;;8.55;62.38
57192;BME280;43052;52.588;13.396;2023-03-19T04:27:19;100997.16;;;8.56;62.27
57192;BME280;43052;52.588;13.396;2023-03-19T04:29:45;100998.91;;;8.57;62.15
57192;BME280;43052;52.588;13.396;2023-03-19T04:32:10;100992.84;;;8.61;62.09
57192;BME280;43052;52.588;13.396;2023-03-19T04:34:35;101005.88;;;8.61;62.24
57192;BME280;43052;52.588;13.396;2023-03-19T04:37:01;101006.75;;;8.65;62.39
57192;BME280;43052;52.588;13.396;2023-03-19T04:39:27;101009.44;;;8.71;62.27
57192;BME280;43052;52.588;13.396;2023-03-19T04:41:52;101009.47;;;8.75;62.20
57192;BME280;43052;52.588;13.396;2023-03-19T04:44:18;101011.22;;;8.78;62.10
57192;BME280;43052;52.588;13.396;2023-03-19T04:46:43;101014.69;;;8.75;62.22
57192;BME280;43052;52.588;13.396;2023-03-19T04:49:10;101020.75;;;8.77;62.36
57192;BME280;43052;52.588;13.396;2023-03-19T04:51:35;101021.59;;;8.75;62.40
57192;BME280;43052;52.588;13.396;2023-03-19T04:54:00;101013.81;;;8.78;62.27
57192;BME280;43052;52.588;13.396;2023-03-19T04:56:25;101011.25;;;8.83;62.23
57192;BME280;43052;52.588;13.396;2023-03-19T04:58:51;101019.91;;;8.82;62.24
57192;BME280;43052;52.588;13.396;2023-03-19T05:01:17;101025.06;;;8.74;62.15
57192;BME280;43052;52.588;13.396;2023-03-19T05:03:43;101021.59;;;8.70;62.25
57192;BME280;43052;52.588;13.396;2023-03-19T05:06:08;101022.53;;;8.80;62.33
57192;BME280;43052;52.588;13.396;2023-03-19T05:08:33;101025.19;;;8.89;62.13
57192;BME280;43052;52.588;13.396;2023-03-19T05:10:59;101025.22;;;8.94;62.01
57192;BME280;43052;52.588;13.396;2023-03-19T05:13:24;101025.28;;;9.03;62.09
57192;BME280;43052;52.588;13.396;2023-03-19T05:15:51;101028.75;;;9.08;62.05
57192;BME280;43052;52.588;13.396;2023-03-19T05:18:17;101026.19;;;9.16;62.01
57192;BME280;43052;52.588;13.396;2023-03-19T05:20:42;101035.78;;;9.20;61.71
57192;BME280;43052;52.588;13.396;2023-03-19T05:23:08;101030.53;;;9.16;61.84
57192;BME280;43052;52.588;13.396;2023-03-19T05:25:34;101016.56;;;9.07;62.37
57192;BME280;43052;52.588;13.396;2023-03-19T05:27:59;101013.91;;;8.95;62.78
57192;BME280;43052;52.588;13.396;2023-03-19T05:30:24;101006.91;;;8.86;63.22
57192;BME280;43052;52.588;13.396;2023-03-19T05:32:51;101028.66;;;8.90;63.48
57192;BME280;43052;52.588;13.396;2023-03-19T05:35:17;101037.41;;;8.98;63.36
57192;BME280;43052;52.588;13.396;2023-03-19T05:37:42;101046.13;;;9.05;63.73
57192;BME280;43052;52.588;13.396;2023-03-19T05:40:08;101049.63;;;9.07;64.11
57192;BME280;43052;52.588;13.396;2023-03-19T05:42:33;101032.22;;;9.04;64.09
57192;BME280;43052;52.588;13.396;2023-03-19T05:44:58;101025.25;;;8.99;64.90
57192;BME280;43052;52.588;13.396;2023-03-19T05:47:24;101020.75;;;8.77;66.12
57192;BME280;43052;52.588;13.396;2023-03-19T05:49:49;101013.75;;;8.69;66.54
57192;BME280;43052;52.588;13.396;2023-03-19T05:52:15;100998.09;;;8.66;66.77
57192;BME280;43052;52.588;13.396;2023-03-19T05:54:40;100988.53;;;8.66;67.01
57192;BME280;43052;52.588;13.396;2023-03-19T05:57:06;100971.16;;;8.65;67.35
57192;BME280;43052;52.588;13.396;2023-03-19T05:59:32;100968.50;;;8.57;67.85
57192;BME280;43052;52.588;13.396;2023-03-19T06:01:57;100962.38;;;8.49;68.60
57192;BME280;43052;52.588;13.396;2023-03-19T06:04:23;100953.63;;;8.45;68.75
57192;BME280;43052;52.588;13.396;2023-03-19T06:06:48;100956.22;;;8.45;69.17
57192;BME280;43052;52.588;13.396;2023-03-19T06:09:13;100966.72;;;8.52;69.24
57192;BME280;43052;52.588;13.396;2023-03-19T06:11:38;100945.91;;;8.61;69.56
57192;BME280;43052;52.588;13.396;2023-03-19T06:14:05;100950.31;;;8.68;69.90
57192;BME280;43052;52.588;13.396;2023-03-19T06:16:31;100949.50;;;8.75;69.72
57192;BME280;43052;52.588;13.396;2023-03-19T06:18:56;100952.16;;;8.86;69.80
57192;BME280;43052;52.588;13.396;2023-03-19T06:21:21;100953.06;;;8.98;69.66
57192;BME280;43052;52.588;13.396;2023-03-19T06:23:46;100960.94;;;9.13;69.45
57192;BME280;43052;52.588;13.396;2023-03-19T06:26:11;100959.28;;;9.34;69.36
57192;BME280;43052;52.588;13.396;2023-03-19T06:28:37;100958.47;;;9.60;69.37
57192;BME280;43052;52.588;13.396;2023-03-19T06:31:02;100961.09;;;9.80;68.67
57192;BME280;43052;52.588;13.396;2023-03-19T06:33:28;100957.59;;;9.93;68.52
57192;BME280;43052;52.588;13.396;2023-03-19T06:35:56;100954.13;;;10.11;68.36
57192;BME280;43052;52.588;13.396;2023-03-19T06:38:21;100958.50;;;10.37;68.50
57192;BME280;43052;52.588;13.396;2023-03-19T06:40:47;100966.25;;;10.68;67.80
57192;BME280;43052;52.588;13.396;2023-03-19T06:43:12;100966.22;;;10.93;67.42
57192;BME280;43052;52.588;13.396;2023-03-19T06:45:38;100968.66;;;11.28;66.99
57192;BME280;43052;52.588;13.396;2023-03-19T06:48:03;100984.03;;;11.83;66.41
57192;BME280;43052;52.588;13.396;2023-03-19T06:50:28;100986.19;;;12.43;64.92
57192;BME280;43052;52.588;13.396;2023-03-19T06:52:54;101003.28;;;13.56;62.75
57192;BME280;43052;52.588;13.396;2023-03-19T06:55:19;101036.56;;;14.68;60.53
57192;BME280;43052;52.588;13.396;2023-03-19T06:57:48;101079.69;;;15.10;59.08
57192;BME280;43052;52.588;13.396;2023-03-19T07:00:15;101080.06;;;14.36;59.37
57192;BME280;43052;52.588;13.396;2023-03-19T07:02:40;101060.13;;;13.60;60.87
57192;BME280;43052;52.588;13.396;2023-03-19T07:05:06;101055.66;;;12.95;62.28
57192;BME280;43052;52.588;13.396;2023-03-19T07:07:31;101062.13;;;12.57;63.43
57192;BME280;43052;52.588;13.396;2023-03-19T07:09:56;101093.78;;;12.35;63.85
57192;BME280;43052;52.588;13.396;2023-03-19T07:12:22;101105.28;;;12.14;64.01
57192;BME280;43052;52.588;13.396;2023-03-19T07:14:47;101149.09;;;11.90;64.38
57192;BME280;43052;52.588;13.396;2023-03-19T07:17:13;101156.16;;;11.65;64.76
57192;BME280;43052;52.588;13.396;2023-03-19T07:19:38;101150.13;;;11.38;65.38
57192;BME280;43052;52.588;13.396;2023-03-19T07:22:03;101137.13;;;11.12;66.25
57192;BME280;43052;52.588;13.396;2023-03-19T07:24:29;101121.44;;;10.84;67.42
57192;BME280;43052;52.588;13.396;2023-03-19T07:26:54;101126.69;;;10.64;68.30
57192;BME280;43052;52.588;13.396;2023-03-19T07:29:20;101123.19;;;10.54;68.46
57192;BME280;43052;52.588;13.396;2023-03-19T07:31:45;101151.09;;;10.55;68.88
57192;BME280;43052;52.588;13.396;2023-03-19T07:34:10;101163.28;;;10.52;68.90
57192;BME280;43052;52.588;13.396;2023-03-19T07:36:36;101148.47;;;10.44;69.23
57192;BME280;43052;52.588;13.396;2023-03-19T07:39:01;101111.81;;;10.35;69.31
57192;BME280;43052;52.588;13.396;2023-03-19T07:41:27;101077.78;;;9.87;73.12
57192;BME280;43052;52.588;13.396;2023-03-19T07:43:52;101063.66;;;9.32;76.46
57192;BME280;43052;52.588;13.396;2023-03-19T07:46:17;101060.00;;;8.96;79.71
57192;BME280;43052;52.588;13.396;2023-03-19T07:48:43;101054.72;;;8.84;82.38
57192;BME280;43052;52.588;13.396;2023-03-19T07:51:08;101054.63;;;8.71;83.60
57192;BME280;43052;52.588;13.396;2023-03-19T07:53:33;101046.81;;;8.68;84.27
57192;BME280;43052;52.588;13.396;2023-03-19T07:55:58;101056.41;;;8.77;84.84
57192;BME280;43052;52.588;13.396;2023-03-19T07:58:24;101041.59;;;8.73;84.96
57192;BME280;43052;52.588;13.396;2023-03-19T08:00:50;101024.25;;;8.76;85.79
57192;BME280;43052;52.588;13.396;2023-03-19T08:03:15;101026.00;;;8.79;86.56
57192;BME280;43052;52.588;13.396;2023-03-19T08:05:41;101039.94;;;8.84;87.08
57192;BME280;43052;52.588;13.396;2023-03-19T08:08:06;101061.75;;;8.97;87.79
57192;BME280;43052;52.588;13.396;2023-03-19T08:10:32;101076.63;;;9.18;88.10
57192;BME280;43052;52.588;13.396;2023-03-19T08:12:57;101066.28;;;9.34;88.05
57192;BME280;43052;52.588;13.396;2023-03-19T08:15:22;101069.81;;;9.45;88.25
57192;BME280;43052;52.588;13.396;2023-03-19T08:17:47;101078.56;;;9.55;88.29
57192;BME280;43052;52.588;13.396;2023-03-19T08:20:14;101071.59;;;9.55;88.27
57192;BME280;43052;52.588;13.396;2023-03-19T08:22:42;101065.50;;;9.58;88.83
57192;BME280;43052;52.588;13.396;2023-03-19T08:25:08;101069.84;;;9.57;89.01
57192;BME280;43052;52.588;13.396;2023-03-19T08:27:34;101083.81;;;9.64;89.50
57192;BME280;43052;52.588;13.396;2023-03-19T08:30:02;101084.69;;;9.63;89.65
57192;BME280;43052;52.588;13.396;2023-03-19T08:32:28;101105.56;;;9.66;89.95
57192;BME280;43052;52.588;13.396;2023-03-19T08:34:53;101114.31;;;9.76;90.65
57192;BME280;43052;52.588;13.396;2023-03-19T08:37:18;101116.09;;;9.82;90.85
57192;BME280;43052;52.588;13.396;2023-03-19T08:39:44;101126.53;;;9.85;90.82
57192;BME280;43052;52.588;13.396;2023-03-19T08:42:09;101135.22;;;9.84;91.31
57192;BME280;43052;52.588;13.396;2023-03-19T08:44:34;101145.66;;;9.84;91.12
57192;BME280;43052;52.588;13.396;2023-03-19T08:47:00;101151.75;;;9.77;91.03
57192;BME280;43052;52.588;13.396;2023-03-19T08:49:25;101159.50;;;9.61;91.25
57192;BME280;43052;52.588;13.396;2023-03-19T08:51:50;101154.25;;;9.53;91.55
57192;BME280;43052;52.588;13.396;2023-03-19T08:54:15;101150.72;;;9.45;91.62
57192;BME280;43052;52.588;13.396;2023-03-19T08:56:41;101147.19;;;9.37;91.88
57192;BME280;43052;52.588;13.396;2023-03-19T08:59:06;101145.34;;;9.17;90.87
57192;BME280;43052;52.588;13.396;2023-03-19T09:01:32;101150.50;;;9.03;91.16
57192;BME280;43052;52.588;13.396;2023-03-19T09:03:57;101147.81;;;8.94;90.76
57192;BME280;43052;52.588;13.396;2023-03-19T09:06:22;101140.78;;;8.87;90.88
57192;BME280;43052;52.588;13.396;2023-03-19T09:08:48;101145.97;;;8.82;90.73
57192;BME280;43052;52.588;13.396;2023-03-19T09:11:13;101137.19;;;8.74;91.13
57192;BME280;43052;52.588;13.396;2023-03-19T09:13:40;101131.94;;;8.69;91.34
57192;BME280;43052;52.588;13.396;2023-03-19T09:16:05;101118.91;;;8.66;91.47
57192;BME280;43052;52.588;13.396;2023-03-19T09:18:32;101118.84;;;8.60;91.20
57192;BME280;43052;52.588;13.396;2023-03-19T09:20:57;101122.25;;;8.51;91.46
57192;BME280;43052;52.588;13.396;2023-03-19T09:23:23;101116.19;;;8.54;92.04
57192;BME280;43052;52.588;13.396;2023-03-19T09:25:48;101123.22;;;8.66;92.69
57192;BME280;43052;52.588;13.396;2023-03-19T09:28:14;101115.44;;;8.67;92.83
57192;BME280;43052;52.588;13.396;2023-03-19T09:30:39;101111.09;;;8.69;92.94
57192;BME280;43052;52.588;13.396;2023-03-19T09:33:05;101111.94;;;8.67;92.97
57192;BME280;43052;52.588;13.396;2023-03-19T09:35:30;101093.69;;;8.64;92.80
57192;BME280;43052;52.588;13.396;2023-03-19T09:37:58;101097.13;;;8.61;93.15
57192;BME280;43052;52.588;13.396;2023-03-19T09:40:45;101090.19;;;8.61;93.12
57192;BME280;43052;52.588;13.396;2023-03-19T09:45:44;101085.88;;;8.65;93.81
57192;BME280;43052;52.588;13.396;2023-03-19T09:48:42;101083.31;;;8.71;94.11
57192;BME280;43052;52.588;13.396;2023-03-19T09:51:16;101081.69;;;8.87;94.28
57192;BME280;43052;52.588;13.396;2023-03-19T09:53:48;101084.34;;;8.97;94.33
57192;BME280;43052;52.588;13.396;2023-03-19T09:56:16;101071.50;;;9.29;94.84
57192;BME280;43052;52.588;13.396;2023-03-19T09:58:43;101073.34;;;9.55;94.66
57192;BME280;43052;52.588;13.396;2023-03-19T10:01:25;101064.78;;;10.35;95.04
57192;BME280;43052;52.588;13.396;2023-03-19T10:04:31;101063.44;;;12.02;91.39
57192;BME280;43052;52.588;13.396;2023-03-19T10:07:09;101061.03;;;12.81;87.21
57192;BME280;43052;52.588;13.396;2023-03-19T10:09:44;101059.78;;;13.16;83.33
57192;BME280;43052;52.588;13.396;2023-03-19T10:15:30;101059.75;;;13.88;79.95
57192;BME280;43052;52.588;13.396;2023-03-19T10:18:06;101053.34;;;13.44;78.67
57192;BME280;43052;52.588;13.396;2023-03-19T10:23:28;101060.69;;;12.20;79.70
57192;BME280;43052;52.588;13.396;2023-03-19T10:25:58;101060.00;;;11.87;81.42
57192;BME280;43052;52.588;13.396;2023-03-19T10:28:27;101064.44;;;11.73;83.30
57192;BME280;43052;52.588;13.396;2023-03-19T10:31:02;101067.16;;;11.57;83.40
57192;BME280;43052;52.588;13.396;2023-03-19T10:33:48;101064.50;;;11.60;84.33
57192;BME280;43052;52.588;13.396;2023-03-19T10:36:17;101063.63;;;11.62;83.34
57192;BME280;43052;52.588;13.396;2023-03-19T10:38:44;101067.13;;;11.59;82.39
57192;BME280;43052;52.588;13.396;2023-03-19T10:41:49;101067.03;;;11.85;84.84
57192;BME280;43052;52.588;13.396;2023-03-19T10:44:24;101069.31;;;12.32;84.50
57192;BME280;43052;52.588;13.396;2023-03-19T10:46:51;101059.38;;;12.71;84.27
57192;BME280;43052;52.588;13.396;2023-03-19T10:49:16;101062.31;;;13.26;85.58
57192;BME280;43052;52.588;13.396;2023-03-19T10:51:44;101070.56;;;13.68;84.62
57192;BME280;43052;52.588;13.396;2023-03-19T10:54:21;101072.00;;;13.89;84.32
57192;BME280;43052;52.588;13.396;2023-03-19T10:56:48;101063.94;;;14.03;81.51
57192;BME280;43052;52.588;13.396;2023-03-19T10:59:23;101042.16;;;13.95;79.73
57192;BME280;43052;52.588;13.396;2023-03-19T11:01:48;101059.13;;;14.30;82.25
57192;BME280;43052;52.588;13.396;2023-03-19T11:04:19;101059.31;;;14.72;79.02
57192;BME280;43052;52.588;13.396;2023-03-19T11:07:01;101057.88;;;15.03;76.30
57192;BME280;43052;52.588;13.396;2023-03-19T11:09:32;101059.03;;;15.33;77.54
57192;BME280;43052;52.588;13.396;2023-03-19T11:12:17;101054.31;;;15.48;77.26
57192;BME280;43052;52.588;13.396;2023-03-19T11:14:55;101053.22;;;15.58;77.97
57192;BME280;43052;52.588;13.396;2023-03-19T11:17:45;101058.69;;;15.49;76.26
57192;BME280;43052;52.588;13.396;2023-03-19T11:22:40;101059.41;;;15.57;76.86
57192;BME280;43052;52.588;13.396;2023-03-19T11:25:18;101060.03;;;15.69;77.69
57192;BME280;43052;52.588;13.396;2023-03-19T11:28:02;101058.94;;;15.79;77.06
57192;BME280;43052;52.588;13.396;2023-03-19T11:30:37;101062.28;;;15.87;77.09
57192;BME280;43052;52.588;13.396;2023-03-19T11:36:16;101070.34;;;15.79;74.08
57192;BME280;43052;52.588;13.396;2023-03-19T11:41:29;101070.44;;;15.75;73.34
57192;BME280;43052;52.588;13.396;2023-03-19T11:44:05;101061.72;;;15.71;73.41
57192;BME280;43052;52.588;13.396;2023-03-19T11:46:39;101072.88;;;15.86;73.32
57192;BME280;43052;52.588;13.396;2023-03-19T11:51:50;101073.69;;;15.89;72.03
57192;BME280;43052;52.588;13.396;2023-03-19T11:54:35;101074.72;;;15.80;71.67
57192;BME280;43052;52.588;13.396;2023-03-19T12:00:04;101076.28;;;15.48;70.42
57192;BME280;43052;52.588;13.396;2023-03-19T12:05:30;101068.53;;;15.42;70.12
57192;BME280;43052;52.588;13.396;2023-03-19T12:08:04;101070.31;;;15.40;69.95
57192;BME280;43052;52.588;13.396;2023-03-19T12:10:41;101064.44;;;15.26;69.31
57192;BME280;43052;52.588;13.396;2023-03-19T12:13:36;101069.69;;;15.27;68.53
57192;BME280;43052;52.588;13.396;2023-03-19T12:21:51;101069.75;;;15.24;66.71
57192;BME280;43052;52.588;13.396;2023-03-19T12:24:40;101068.06;;;15.22;66.68
57192;BME280;43052;52.588;13.396;2023-03-19T12:27:32;101075.94;;;15.22;66.70
57192;BME280;43052;52.588;13.396;2023-03-19T12:33:07;101062.50;;;15.34;66.09
57192;BME280;43052;52.588;13.396;2023-03-19T12:35:37;101057.88;;;15.47;66.23
57192;BME280;43052;52.588;13.396;2023-03-19T12:38:09;101053.22;;;15.60;65.83
57192;BME280;43052;52.588;13.396;2023-03-19T12:40:46;101056.34;;;15.77;65.29
57192;BME280;43052;52.588;13.396;2023-03-19T12:43:24;101051.59;;;15.95;64.87
57192;BME280;43052;52.588;13.396;2023-03-19T12:45:58;101045.94;;;16.10;64.16
57192;BME280;43052;52.588;13.396;2023-03-19T12:48:34;101046.28;;;16.33;62.71
57192;BME280;43052;52.588;13.396;2023-03-19T12:51:06;101047.00;;;16.39;62.33
57192;BME280;43052;52.588;13.396;2023-03-19T12:53:55;101043.13;;;16.53;62.08
57192;BME280;43052;52.588;13.396;2023-03-19T12:56:32;101040.91;;;16.70;61.59
57192;BME280;43052;52.588;13.396;2023-03-19T12:59:23;101042.06;;;16.95;61.20
57192;BME280;43052;52.588;13.396;2023-03-19T13:01:57;101038.84;;;17.15;59.96
57192;BME280;43052;52.588;13.396;2023-03-19T13:04:30;101040.63;;;17.14;59.66
57192;BME280;43052;52.588;13.396;2023-03-19T13:07:04;101046.31;;;17.00;59.38
57192;BME280;43052;52.588;13.396;2023-03-19T13:09:41;101038.72;;;16.86;59.43
57192;BME280;43052;52.588;13.396;2023-03-19T13:12:25;101049.41;;;16.82;59.54
57192;BME280;43052;52.588;13.396;2023-03-19T13:15:11;101043.34;;;16.78;59.88
57192;BME280;43052;52.588;13.396;2023-03-19T13:18:07;101043.75;;;16.63;59.12
57192;BME280;43052;52.588;13.396;2023-03-19T13:21:08;101042.16;;;16.55;59.70
57192;BME280;43052;52.588;13.396;2023-03-19T13:23:37;101038.69;;;16.53;59.76
57192;BME280;43052;52.588;13.396;2023-03-19T13:26:06;101045.88;;;16.48;59.72
57192;BME280;43052;52.588;13.396;2023-03-19T13:28:36;101046.78;;;16.47;59.32
57192;BME280;43052;52.588;13.396;2023-03-19T13:31:18;101042.22;;;16.54;59.14